Sundance, Wyoming
Current Conditions -  °F | °C
As of 10:35 PM on Monday 26 Jan 2015 (Local Time) from KSPF Reporting Station
Clear Clear  
Wind Chill: 50°   Ceiling: Unl
Heat Index: 50°   Visibility: 10mi
Dew Point: 25°   Wind: 5mph
Humidity: 37%   Direction: 280°W
Pressure: 30.01"   Gusts: NA
Location:  44.41°N, 104.38°W
Report Text: KSPF 270535Z AUTO 28004KT 10SM CLR 10/M04 A3001 RMK AO2
Loading
Personal Weather Stations






























Interactive Weather Map New forecast layout! Learn more

10-Day Weather Forecast

Advertisements
Track Severe Weather on mobile